createdAt,value
2023-04-19T00:02:06.786Z,7.03
2023-04-19T00:04:34.786Z,7.18
2023-04-19T00:07:03.456Z,6.90
2023-04-19T00:09:31.218Z,7.65
2023-04-19T00:11:59.028Z,7.80
2023-04-19T00:14:26.904Z,7.75
2023-04-19T00:16:54.768Z,7.88
2023-04-19T00:19:23.913Z,8.07
2023-04-19T00:21:51.628Z,7.65
2023-04-19T00:24:19.447Z,7.90
2023-04-19T00:26:47.179Z,7.40
2023-04-19T00:29:14.903Z,7.57
2023-04-19T00:31:42.708Z,7.43
2023-04-19T00:34:10.399Z,10.35
2023-04-19T00:36:39.504Z,7.65
2023-04-19T00:39:07.818Z,7.20
2023-04-19T00:41:35.687Z,8.32
2023-04-19T00:44:03.433Z,7.53
2023-04-19T00:46:31.390Z,7.90
2023-04-19T00:48:59.560Z,8.02
2023-04-19T00:51:27.754Z,8.15
2023-04-19T00:53:58.419Z,8.02
2023-04-19T00:56:28.222Z,7.93
2023-04-19T00:58:57.004Z,7.60
2023-04-19T01:01:24.804Z,7.65
2023-04-19T01:03:53.273Z,8.05
2023-04-19T01:06:21.559Z,8.35
2023-04-19T01:08:49.453Z,8.43
2023-04-19T01:11:18.627Z,8.20
2023-04-19T01:13:46.397Z,9.15
2023-04-19T01:16:14.328Z,7.80
2023-04-19T01:18:42.091Z,8.85
2023-04-19T01:21:10.080Z,9.07
2023-04-19T01:23:40.440Z,8.10
2023-04-19T01:26:08.239Z,8.27
2023-04-19T01:28:36.067Z,7.82
2023-04-19T01:31:04.962Z,8.07
2023-04-19T01:33:35.696Z,8.80
2023-04-19T01:36:03.702Z,9.00
2023-04-19T01:38:31.422Z,8.35
2023-04-19T01:41:00.510Z,8.63
2023-04-19T01:43:28.217Z,7.95
2023-04-19T01:45:55.971Z,9.82
2023-04-19T01:48:23.736Z,8.23
2023-04-19T01:50:51.503Z,8.85
2023-04-19T01:53:19.447Z,8.10
2023-04-19T01:55:47.202Z,8.88
2023-04-19T01:58:16.491Z,8.27
2023-04-19T02:00:44.216Z,8.73
2023-04-19T02:03:12.083Z,8.00
2023-04-19T02:05:40.242Z,8.65
2023-04-19T02:08:08.487Z,7.72
2023-04-19T02:10:36.567Z,8.73
2023-04-19T02:13:04.375Z,8.27
2023-04-19T02:15:33.460Z,8.43
2023-04-19T02:18:01.308Z,8.45
2023-04-19T02:20:29.133Z,8.75
2023-04-19T02:22:56.870Z,8.57
2023-04-19T02:25:24.619Z,9.20
2023-04-19T02:27:52.378Z,8.85
2023-04-19T02:30:20.293Z,9.55
2023-04-19T02:32:50.331Z,9.45
2023-04-19T02:35:18.128Z,9.02
2023-04-19T02:37:45.922Z,9.80
2023-04-19T02:40:13.645Z,9.38
2023-04-19T02:42:41.393Z,10.07
2023-04-19T02:45:10.334Z,8.40
2023-04-19T02:47:38.196Z,10.00
2023-04-19T02:50:08.608Z,9.32
2023-04-19T02:52:36.339Z,9.10
2023-04-19T02:55:04.570Z,9.85
2023-04-19T02:57:32.358Z,8.95
2023-04-19T03:00:00.214Z,8.90
2023-04-19T03:02:28.089Z,9.25
2023-04-19T03:04:56.267Z,8.73
2023-04-19T03:07:26.126Z,8.88
2023-04-19T03:09:54.058Z,8.88
2023-04-19T03:12:21.827Z,9.07
2023-04-19T03:14:49.775Z,9.02
2023-04-19T03:17:17.524Z,8.90
2023-04-19T03:19:45.356Z,9.18
2023-04-19T03:22:13.103Z,9.73
2023-04-19T03:24:42.213Z,9.30
2023-04-19T03:27:10.005Z,8.90
2023-04-19T03:29:37.784Z,9.10
2023-04-19T03:32:05.619Z,11.13
2023-04-19T03:34:33.786Z,8.45
2023-04-19T03:37:01.774Z,8.77
2023-04-19T03:39:29.515Z,8.50
2023-04-19T03:41:58.684Z,9.60
2023-04-19T03:44:26.429Z,9.25
2023-04-19T03:46:54.236Z,8.65
2023-04-19T03:49:22.002Z,8.80
2023-04-19T03:51:49.789Z,8.68
2023-04-19T03:54:17.791Z,8.57
2023-04-19T03:56:45.871Z,8.02
2023-04-19T03:59:14.938Z,8.07
2023-04-19T04:01:42.925Z,8.93
2023-04-19T04:04:11.906Z,9.50
2023-04-19T04:06:40.130Z,8.13
2023-04-19T04:09:07.998Z,8.15
2023-04-19T04:11:35.760Z,8.90
2023-04-19T04:14:03.548Z,9.02
2023-04-19T04:16:32.757Z,9.43
2023-04-19T04:19:00.529Z,8.50
2023-04-19T04:21:28.290Z,8.38
2023-04-19T04:23:56.092Z,7.78
2023-04-19T04:26:25.180Z,7.82
2023-04-19T04:28:53.908Z,8.27
2023-04-19T04:31:21.744Z,8.70
2023-04-19T04:33:50.997Z,8.32
2023-04-19T04:36:18.786Z,8.30
2023-04-19T04:38:46.577Z,8.32
2023-04-19T04:41:14.442Z,8.57
2023-04-19T04:43:42.550Z,8.02
2023-04-19T04:46:10.500Z,7.82
2023-04-19T04:48:38.269Z,7.82
2023-04-19T04:51:07.685Z,8.25
2023-04-19T04:53:35.430Z,8.10
2023-04-19T04:56:03.181Z,8.60
2023-04-19T04:58:30.983Z,7.97
2023-04-19T05:00:58.958Z,7.60
2023-04-19T05:03:27.127Z,7.65
2023-04-19T05:05:54.912Z,7.68
2023-04-19T05:08:24.121Z,8.70
2023-04-19T05:10:51.946Z,8.07
2023-04-19T05:13:19.634Z,7.65
2023-04-19T05:15:47.431Z,7.70
2023-04-19T05:18:15.208Z,7.45
2023-04-19T05:20:43.824Z,7.32
2023-04-19T05:23:11.650Z,9.45
2023-04-19T05:25:41.072Z,7.45
2023-04-19T05:28:09.420Z,7.80
2023-04-19T05:30:37.275Z,7.60
2023-04-19T05:33:05.713Z,9.63
2023-04-19T05:35:33.451Z,8.40
2023-04-19T05:38:02.516Z,7.85
2023-04-19T05:40:33.723Z,7.75
2023-04-19T05:43:02.861Z,7.85
2023-04-19T05:45:30.598Z,7.38
2023-04-19T05:47:58.428Z,6.85
2023-04-19T05:50:26.241Z,7.13
2023-04-19T05:52:54.219Z,7.47
2023-04-19T05:55:51.956Z,7.72
2023-04-19T05:58:19.436Z,6.13
2023-04-19T06:00:51.845Z,7.05
2023-04-19T06:03:19.730Z,8.05
2023-04-19T06:05:47.528Z,7.43
2023-04-19T06:08:16.479Z,6.47
2023-04-19T06:10:54.582Z,6.70
2023-04-19T06:13:25.990Z,6.72
2023-04-19T06:15:53.950Z,7.50
2023-04-19T06:18:21.787Z,6.50
2023-04-19T06:20:49.828Z,6.10
2023-04-19T06:23:18.641Z,6.78
2023-04-19T06:25:48.701Z,6.10
2023-04-19T06:28:16.837Z,6.93
2023-04-19T06:30:46.120Z,6.38
2023-04-19T06:33:13.835Z,6.10
2023-04-19T06:35:41.575Z,5.82
2023-04-19T06:38:09.382Z,5.95
2023-04-19T06:40:37.113Z,6.03
2023-04-19T06:43:05.943Z,5.75
2023-04-19T06:45:34.062Z,5.63
2023-04-19T06:48:03.417Z,5.60
2023-04-19T06:50:31.678Z,6.63
2023-04-19T06:52:59.628Z,5.50
2023-04-19T06:55:27.441Z,5.47
2023-04-19T06:57:55.212Z,6.03
2023-04-19T07:00:24.009Z,5.47
2023-04-19T07:02:52.364Z,5.55
2023-04-19T07:05:21.917Z,5.93
2023-04-19T07:07:49.681Z,5.72
2023-04-19T07:10:17.595Z,5.78
2023-04-19T07:12:45.401Z,5.15
2023-04-19T07:15:13.256Z,4.60
2023-04-19T07:17:41.649Z,5.60
2023-04-19T07:20:13.047Z,6.95
2023-04-19T07:22:42.238Z,5.28
2023-04-19T07:25:11.292Z,5.03
2023-04-19T07:27:42.418Z,5.15
2023-04-19T07:30:11.785Z,4.80
2023-04-19T07:32:39.668Z,5.35
2023-04-19T07:35:08.408Z,4.97
2023-04-19T07:37:36.488Z,4.80
2023-04-19T07:40:06.953Z,4.95
2023-04-19T07:42:34.814Z,4.82
2023-04-19T07:45:03.032Z,4.57
2023-04-19T07:47:31.404Z,4.50
2023-04-19T07:49:59.292Z,4.53
2023-04-19T07:52:27.144Z,4.18
2023-04-19T07:54:54.855Z,4.25
2023-04-19T07:57:23.966Z,4.35
2023-04-19T07:59:51.721Z,4.53
2023-04-19T08:02:19.700Z,4.07
2023-04-19T08:04:52.126Z,4.10
2023-04-19T08:07:20.043Z,3.83
2023-04-19T08:09:47.870Z,3.85
2023-04-19T08:12:26.522Z,4.10
2023-04-19T08:15:19.646Z,4.03
2023-04-19T08:17:52.317Z,3.83
2023-04-19T08:20:21.639Z,3.78
2023-04-19T08:22:49.463Z,3.83
2023-04-19T08:25:17.349Z,3.88
2023-04-19T08:27:45.079Z,3.78
2023-04-19T08:30:14.785Z,4.00
2023-04-19T08:32:42.561Z,3.88
2023-04-19T08:35:11.202Z,3.40
2023-04-19T08:37:38.976Z,3.78
2023-04-19T08:40:08.611Z,3.55
2023-04-19T08:42:37.245Z,3.40
2023-04-19T08:47:56.223Z,3.70
2023-04-19T08:50:33.377Z,3.17
2023-04-19T08:55:34.916Z,3.45
2023-04-19T08:58:09.630Z,3.22
2023-04-19T09:00:41.369Z,3.45
2023-04-19T09:03:11.434Z,3.15
2023-04-19T09:06:02.092Z,3.00
2023-04-19T09:08:31.394Z,2.97
2023-04-19T09:11:00.800Z,2.90
2023-04-19T09:13:30.221Z,3.10
2023-04-19T09:16:00.360Z,2.90
2023-04-19T09:18:32.090Z,2.85
2023-04-19T09:21:01.371Z,2.90
2023-04-19T09:23:29.728Z,4.78
2023-04-19T09:28:32.819Z,3.05
2023-04-19T09:31:33.225Z,3.00
2023-04-19T09:34:15.250Z,2.80
2023-04-19T09:36:43.205Z,3.20
2023-04-19T09:39:11.952Z,3.00
2023-04-19T09:41:52.243Z,3.03
2023-04-19T09:44:53.082Z,2.78
2023-04-19T09:47:24.364Z,2.45
2023-04-19T09:50:21.355Z,2.60
2023-04-19T09:52:51.214Z,2.78
2023-04-19T09:57:52.934Z,1.98
2023-04-19T10:00:22.128Z,1.92
2023-04-19T10:02:55.893Z,1.67
2023-04-19T10:05:26.456Z,2.00
2023-04-19T10:07:59.712Z,2.30
2023-04-19T10:10:41.444Z,2.22
2023-04-19T10:15:51.278Z,2.08
2023-04-19T10:18:21.111Z,1.70
2023-04-19T10:20:54.273Z,1.67
2023-04-19T10:23:23.584Z,1.48
2023-04-19T10:25:57.608Z,1.65
2023-04-19T10:28:25.826Z,1.52
2023-04-19T10:30:55.599Z,1.58
2023-04-19T10:33:28.206Z,1.48
2023-04-19T10:36:01.431Z,1.73
2023-04-19T10:38:40.500Z,1.40
2023-04-19T10:41:16.795Z,1.50
2023-04-19T10:43:47.433Z,1.50
2023-04-19T10:46:17.425Z,1.70
2023-04-19T10:48:55.526Z,1.27
2023-04-19T10:51:28.135Z,1.33
2023-04-19T10:54:00.536Z,1.60
2023-04-19T10:57:02.337Z,1.50
2023-04-19T10:59:33.842Z,1.58
2023-04-19T11:02:02.992Z,1.58
2023-04-19T11:05:14.448Z,1.60
2023-04-19T11:07:44.042Z,1.52
2023-04-19T11:10:12.752Z,1.88
2023-04-19T11:12:44.686Z,1.40
2023-04-19T11:15:12.519Z,1.95
2023-04-19T11:17:41.697Z,2.10
2023-04-19T11:20:11.687Z,2.00
2023-04-19T11:22:40.890Z,1.75
2023-04-19T11:25:13.057Z,1.52
2023-04-19T11:27:41.485Z,1.38
2023-04-19T11:30:11.282Z,1.50
2023-04-19T11:32:40.156Z,1.90
2023-04-19T11:35:09.994Z,1.77
2023-04-19T11:37:39.231Z,1.80
2023-04-19T11:40:08.807Z,1.63
2023-04-19T11:42:38.000Z,1.60
2023-04-19T11:45:13.105Z,1.83
2023-04-19T11:47:50.861Z,1.75
2023-04-19T11:50:40.349Z,1.65
2023-04-19T11:53:13.088Z,1.55
2023-04-19T11:55:43.826Z,1.50
2023-04-19T11:58:24.497Z,1.70
2023-04-19T12:00:52.489Z,1.58
2023-04-19T12:03:25.797Z,1.35
2023-04-19T12:05:58.379Z,1.20
2023-04-19T12:08:33.766Z,1.40
2023-04-19T12:11:03.506Z,1.50
2023-04-19T12:13:34.147Z,1.67
2023-04-19T12:16:03.437Z,1.67
2023-04-19T12:18:45.253Z,1.90
2023-04-19T12:21:24.771Z,1.50
2023-04-19T12:23:55.549Z,1.90
2023-04-19T12:26:23.302Z,1.60
2023-04-19T12:28:52.722Z,1.55
2023-04-19T12:31:20.851Z,1.50
2023-04-19T12:33:49.339Z,1.60
2023-04-19T12:36:17.134Z,1.35
2023-04-19T12:38:45.269Z,1.73
2023-04-19T12:41:13.037Z,1.70
2023-04-19T12:43:41.030Z,1.80
2023-04-19T12:46:10.282Z,1.60
2023-04-19T12:48:38.051Z,1.90
2023-04-19T12:51:06.000Z,1.60
2023-04-19T12:53:34.377Z,1.65
2023-04-19T12:56:02.147Z,1.63
2023-04-19T12:58:29.953Z,1.60
2023-04-19T13:00:57.799Z,1.80
2023-04-19T13:03:27.403Z,1.90
2023-04-19T13:05:55.408Z,1.70
2023-04-19T13:08:37.144Z,1.85
2023-04-19T13:11:10.991Z,1.58
2023-04-19T13:13:41.852Z,1.83
2023-04-19T13:16:09.948Z,1.98
2023-04-19T13:18:39.516Z,2.10
2023-04-19T13:21:08.473Z,1.95
2023-04-19T13:23:36.644Z,1.90
2023-04-19T13:26:07.078Z,2.10
2023-04-19T13:28:36.681Z,1.75
2023-04-19T13:31:05.572Z,2.10
2023-04-19T13:33:33.461Z,1.95
2023-04-19T13:36:02.780Z,2.10
2023-04-19T13:38:30.807Z,2.00
2023-04-19T13:40:58.881Z,1.70
2023-04-19T13:43:26.645Z,2.67
2023-04-19T13:45:54.432Z,2.00
2023-04-19T13:48:22.637Z,2.38
2023-04-19T13:50:52.129Z,2.13
2023-04-19T13:53:21.416Z,1.98
2023-04-19T13:55:49.211Z,1.77
2023-04-19T13:58:16.965Z,2.25
2023-04-19T14:00:44.977Z,1.95
2023-04-19T14:03:13.109Z,2.33
2023-04-19T14:05:41.202Z,1.77
2023-04-19T14:08:08.913Z,2.60
2023-04-19T14:10:38.167Z,1.85
2023-04-19T14:13:06.313Z,2.45
2023-04-19T14:15:34.143Z,1.80
2023-04-19T14:18:03.841Z,2.50
2023-04-19T14:20:31.794Z,1.88
2023-04-19T14:23:00.362Z,1.80
2023-04-19T14:25:28.179Z,2.15
2023-04-19T14:27:57.410Z,2.20
2023-04-19T14:30:26.249Z,2.60
2023-04-19T14:32:54.239Z,2.92
2023-04-19T14:35:24.587Z,2.53
2023-04-19T14:37:52.386Z,2.55
2023-04-19T14:40:21.000Z,2.75
2023-04-19T14:42:48.862Z,2.65
2023-04-19T14:45:18.168Z,2.90
2023-04-19T14:47:45.946Z,2.53
2023-04-19T14:50:13.760Z,2.50
2023-04-19T14:52:42.828Z,2.22
2023-04-19T14:55:12.191Z,2.20
2023-04-19T14:57:45.423Z,2.47
2023-04-19T15:00:14.422Z,3.03
2023-04-19T15:02:43.758Z,3.78
2023-04-19T15:05:12.003Z,3.33
2023-04-19T15:07:39.966Z,3.15
2023-04-19T15:10:08.923Z,2.42
2023-04-19T15:12:36.744Z,2.22
2023-04-19T15:15:05.162Z,2.20
2023-04-19T15:17:33.058Z,2.10
2023-04-19T15:20:02.242Z,2.17
2023-04-19T15:22:30.173Z,2.00
2023-04-19T15:24:57.986Z,2.15
2023-04-19T15:27:25.789Z,2.00
2023-04-19T15:29:53.917Z,1.95
2023-04-19T15:32:21.811Z,2.22
2023-04-19T15:34:49.603Z,1.88
2023-04-19T15:37:18.768Z,2.10
2023-04-19T15:39:49.677Z,2.50
2023-04-19T15:42:17.471Z,2.30
2023-04-19T15:44:51.051Z,2.08
2023-04-19T15:47:21.028Z,2.28
2023-04-19T15:49:49.038Z,1.90
2023-04-19T15:52:18.904Z,1.80
2023-04-19T15:54:46.688Z,2.13
2023-04-19T15:57:14.416Z,2.10
2023-04-19T15:59:42.181Z,2.30
2023-04-19T16:02:10.155Z,2.40
2023-04-19T16:04:38.501Z,3.05
2023-04-19T16:07:06.891Z,2.55
2023-04-19T16:09:36.562Z,2.80
2023-04-19T16:12:04.720Z,2.65
2023-04-19T16:14:32.512Z,3.17
2023-04-19T16:17:02.957Z,2.75
2023-04-19T16:19:30.745Z,2.92
2023-04-19T16:22:01.983Z,3.05
2023-04-19T16:24:29.995Z,3.17
2023-04-19T16:26:59.121Z,2.60
2023-04-19T16:29:26.927Z,3.10
2023-04-19T16:31:54.829Z,3.63
2023-04-19T16:34:24.760Z,3.00
2023-04-19T16:36:53.622Z,3.83
2023-04-19T16:39:21.427Z,3.75
2023-04-19T16:41:49.391Z,3.63
2023-04-19T16:44:18.521Z,3.80
2023-04-19T16:46:46.262Z,4.00
2023-04-19T16:49:14.224Z,3.75
2023-04-19T16:51:42.272Z,3.30
2023-04-19T16:54:10.069Z,3.60
2023-04-19T16:56:37.822Z,4.10
2023-04-19T16:59:05.622Z,3.45
2023-04-19T17:01:34.887Z,3.72
2023-04-19T17:04:05.131Z,4.50
2023-04-19T17:06:33.567Z,4.35
2023-04-19T17:09:04.932Z,3.53
2023-04-19T17:11:33.206Z,3.40
2023-04-19T17:14:03.119Z,3.45
2023-04-19T17:16:30.879Z,3.40
2023-04-19T17:18:59.982Z,3.42
2023-04-19T17:21:27.816Z,3.55
2023-04-19T17:23:55.620Z,3.90
2023-04-19T17:26:23.449Z,3.65
2023-04-19T17:28:51.236Z,3.42
2023-04-19T17:31:28.250Z,3.30
2023-04-19T17:33:56.528Z,3.22
2023-04-19T17:36:25.662Z,3.35
2023-04-19T17:38:53.731Z,3.33
2023-04-19T17:41:21.653Z,3.15
2023-04-19T17:43:49.422Z,2.92
2023-04-19T17:46:18.998Z,3.33
2023-04-19T17:48:47.030Z,3.00
2023-04-19T17:51:14.909Z,3.28
2023-04-19T17:53:44.065Z,3.58
2023-04-19T17:56:11.808Z,3.17
2023-04-19T17:58:39.680Z,3.30
2023-04-19T18:01:10.307Z,3.05
2023-04-19T18:03:38.745Z,3.05
2023-04-19T18:06:07.105Z,4.25
2023-04-19T18:08:34.935Z,2.70
2023-04-19T18:11:04.235Z,2.65
2023-04-19T18:13:34.574Z,2.95
2023-04-19T18:16:03.453Z,2.92
2023-04-19T18:18:31.408Z,3.75
2023-04-19T18:20:59.905Z,2.63
2023-04-19T18:23:27.856Z,2.90
2023-04-19T18:25:56.594Z,2.83
2023-04-19T18:28:25.778Z,3.45
2023-04-19T18:30:53.616Z,3.42
2023-04-19T18:33:31.765Z,3.15
2023-04-19T18:35:59.566Z,2.97
2023-04-19T18:38:27.467Z,2.83
2023-04-19T18:41:02.697Z,2.70
2023-04-19T18:43:31.886Z,2.78
2023-04-19T18:46:00.315Z,2.90
2023-04-19T18:48:29.462Z,2.55
2023-04-19T18:50:57.929Z,2.97
2023-04-19T18:53:29.532Z,2.40
2023-04-19T18:55:58.815Z,2.47
2023-04-19T18:58:27.527Z,2.88
2023-04-19T19:00:57.188Z,2.90
2023-04-19T19:05:58.123Z,3.05
2023-04-19T19:08:26.266Z,3.03
2023-04-19T19:13:24.893Z,3.30
2023-04-19T19:15:52.997Z,3.75
2023-04-19T19:18:23.584Z,2.88
2023-04-19T19:20:51.714Z,3.13
2023-04-19T19:23:20.495Z,4.00
2023-04-19T19:25:53.989Z,3.70
2023-04-19T19:28:22.484Z,3.28
2023-04-19T19:30:51.088Z,4.10
2023-04-19T19:33:21.909Z,3.28
2023-04-19T19:35:51.079Z,3.50
2023-04-19T19:38:18.919Z,3.50
2023-04-19T19:41:24.617Z,3.58
2023-04-19T19:43:37.623Z,3.05
2023-04-19T19:46:05.875Z,2.60
2023-04-19T19:48:40.358Z,3.03
2023-04-19T19:53:42.324Z,2.90
2023-04-19T19:56:18.324Z,2.72
2023-04-19T19:58:51.529Z,3.60
2023-04-19T20:01:21.949Z,2.70
2023-04-19T20:03:50.353Z,2.75
2023-04-19T20:07:07.785Z,2.72
2023-04-19T20:09:07.751Z,2.97
2023-04-19T20:11:35.649Z,2.60
2023-04-19T20:14:03.494Z,3.25
2023-04-19T20:16:31.290Z,2.78
2023-04-19T20:18:59.501Z,2.55
2023-04-19T20:21:28.615Z,2.70
2023-04-19T20:23:56.569Z,2.80
2023-04-19T20:26:24.344Z,3.05
2023-04-19T20:28:52.678Z,2.67
2023-04-19T20:31:22.117Z,2.72
2023-04-19T20:33:54.859Z,2.90
2023-04-19T20:36:23.658Z,2.85
2023-04-19T20:38:53.285Z,2.38
2023-04-19T20:41:22.234Z,2.90
2023-04-19T20:43:49.968Z,2.90
2023-04-19T20:46:17.882Z,3.00
2023-04-19T20:48:45.703Z,2.60
2023-04-19T20:51:15.231Z,2.67
2023-04-19T20:53:43.085Z,2.88
2023-04-19T20:56:12.269Z,2.67
2023-04-19T20:58:40.639Z,2.95
2023-04-19T21:01:08.564Z,3.25
2023-04-19T21:03:36.691Z,2.95
2023-04-19T21:06:04.664Z,2.72
2023-04-19T21:08:32.617Z,2.75
2023-04-19T21:11:02.060Z,3.17
2023-04-19T21:13:32.251Z,2.60
2023-04-19T21:16:00.271Z,2.80
2023-04-19T21:18:30.114Z,2.80
2023-04-19T21:20:58.077Z,2.50
2023-04-19T21:23:25.814Z,3.42
2023-04-19T21:25:53.587Z,2.53
2023-04-19T21:28:22.573Z,2.92
2023-04-19T21:30:53.417Z,2.80
2023-04-19T21:33:21.212Z,2.92
2023-04-19T21:35:49.004Z,2.78
2023-04-19T21:38:16.877Z,3.30
2023-04-19T21:40:44.688Z,2.92
2023-04-19T21:43:12.449Z,2.70
2023-04-19T21:45:40.185Z,2.65
2023-04-19T21:48:09.331Z,3.38
2023-04-19T21:50:37.080Z,3.70
2023-04-19T21:53:05.176Z,3.08
2023-04-19T21:55:34.444Z,2.53
2023-04-19T21:58:02.705Z,2.70
2023-04-19T22:00:30.656Z,2.78
2023-04-19T22:03:02.743Z,2.78
2023-04-19T22:05:32.075Z,3.05
2023-04-19T22:07:59.853Z,2.60
2023-04-19T22:10:28.018Z,2.85
2023-04-19T22:12:58.920Z,2.75
2023-04-19T22:15:26.950Z,2.45
2023-04-19T22:17:55.025Z,2.85
2023-04-19T22:20:23.755Z,2.30
2023-04-19T22:22:53.036Z,2.70
2023-04-19T22:25:21.018Z,2.42
2023-04-19T22:27:49.798Z,2.33
2023-04-19T22:30:17.565Z,2.40
2023-04-19T22:32:47.446Z,2.38
2023-04-19T22:35:20.701Z,2.13
2023-04-19T22:37:57.419Z,2.60
2023-04-19T22:40:25.311Z,2.63
2023-04-19T22:43:02.401Z,2.40
2023-04-19T22:45:30.226Z,2.20
2023-04-19T22:47:58.012Z,2.30
2023-04-19T22:50:25.799Z,2.58
2023-04-19T22:52:56.996Z,2.65
2023-04-19T22:55:25.104Z,2.10
2023-04-19T22:57:52.866Z,1.98
2023-04-19T23:00:21.376Z,2.50
2023-04-19T23:02:49.337Z,2.30
2023-04-19T23:05:18.156Z,2.40
2023-04-19T23:07:46.171Z,2.03
2023-04-19T23:10:15.353Z,2.00
2023-04-19T23:12:43.128Z,2.45
2023-04-19T23:15:13.440Z,2.55
2023-04-19T23:17:41.314Z,2.03
2023-04-19T23:20:11.202Z,2.00
2023-04-19T23:22:39.132Z,2.15
2023-04-19T23:25:07.942Z,2.05
2023-04-19T23:27:37.482Z,2.10
2023-04-19T23:30:07.404Z,2.20
2023-04-19T23:32:35.253Z,2.33
2023-04-19T23:35:03.545Z,2.20
2023-04-19T23:37:32.700Z,2.60
2023-04-19T23:40:00.473Z,2.60
2023-04-19T23:42:28.229Z,2.35
2023-04-19T23:44:57.424Z,2.40
2023-04-19T23:47:25.260Z,3.10
2023-04-19T23:49:53.031Z,2.53
2023-04-19T23:52:22.697Z,2.70
2023-04-19T23:54:50.810Z,2.40
2023-04-19T23:57:19.652Z,2.42
2023-04-19T23:59:47.390Z,2.53
